Time;durP1;ratioP1;P1;durP2;ratioP2;P2;SDS_P1;SDS_P2;PMS_P1;PMS_P2;Temp;Humidity;BMP_temperature;BMP_pressure;BME280_temperature;BME280_humidity;BME280_pressure;Samples;Min_cycle;Max_cycle;Signal;HPM_P1;HPM_P2
2022/03/15 00:02:09;;;;;;;19.77;7.57;;;11.90;99.90;;;;;;5088757;28;20020;-79
2022/03/15 00:04:35;;;;;;;24.77;9.25;;;12.00;99.90;;;;;;5095471;28;20396;-79
2022/03/15 00:07:01;;;;;;;22.48;7.18;;;12.00;99.90;;;;;;5095804;28;20024;-78
2022/03/15 00:09:27;;;;;;;21.95;7.10;;;11.90;99.90;;;;;;5097254;28;20020;-79
2022/03/15 00:11:53;;;;;;;21.48;8.43;;;11.90;99.90;;;;;;5095667;28;20035;-78
2022/03/15 00:14:20;;;;;;;24.92;8.88;;;12.00;99.90;;;;;;5097028;28;20033;-79
2022/03/15 00:16:45;;;;;;;14.05;6.72;;;11.90;99.90;;;;;;5097204;28;20032;-79
2022/03/15 00:19:12;;;;;;;21.00;6.93;;;11.90;99.90;;;;;;5096916;28;20150;-79
2022/03/15 00:21:38;;;;;;;23.88;6.97;;;11.90;99.90;;;;;;5100371;28;20837;-79
2022/03/15 00:24:06;;;;;;;21.55;8.45;;;12.00;99.90;;;;;;5099707;28;20036;-79
2022/03/15 00:26:33;;;;;;;27.42;8.85;;;11.90;99.90;;;;;;5099355;28;20125;-78
2022/03/15 00:28:59;;;;;;;19.35;7.18;;;11.90;99.90;;;;;;5099666;28;20480;-79
2022/03/15 00:31:24;;;;;;;21.35;8.00;;;11.90;99.90;;;;;;5101247;28;20073;-78
2022/03/15 00:33:50;;;;;;;23.15;8.70;;;11.90;99.90;;;;;;5099705;28;20035;-78
2022/03/15 00:36:16;;;;;;;21.67;7.05;;;11.90;99.90;;;;;;5100657;28;20031;-79
2022/03/15 00:38:42;;;;;;;23.25;7.85;;;11.90;99.90;;;;;;5100622;28;20488;-78
2022/03/15 00:41:09;;;;;;;21.40;7.85;;;11.90;99.90;;;;;;5101034;28;20096;-80
2022/03/15 00:43:35;;;;;;;27.73;8.43;;;11.90;99.90;;;;;;5099544;28;20055;-78
2022/03/15 00:46:02;;;;;;;20.52;8.07;;;11.90;99.90;;;;;;5100672;28;20024;-78
2022/03/15 00:48:27;;;;;;;28.88;10.25;;;11.90;99.90;;;;;;5099184;28;20070;-79
2022/03/15 00:50:54;;;;;;;28.90;9.20;;;11.90;99.90;;;;;;5100451;28;20435;-79
2022/03/15 00:53:20;;;;;;;23.65;8.02;;;11.90;99.90;;;;;;5100359;28;20031;-79
2022/03/15 00:55:46;;;;;;;31.88;10.30;;;11.90;99.90;;;;;;5100500;28;20035;-78
2022/03/15 00:58:12;;;;;;;32.78;9.63;;;11.90;99.90;;;;;;5098914;28;20032;-78
2022/03/15 01:00:39;;;;;;;28.13;8.07;;;11.90;99.90;;;;;;5099146;28;20500;-79
2022/03/15 01:03:05;;;;;;;23.42;7.57;;;11.90;99.90;;;;;;5098965;28;20039;-79
2022/03/15 01:05:32;;;;;;;22.17;7.47;;;11.80;99.90;;;;;;5099962;28;20079;-79
2022/03/15 01:07:58;;;;;;;29.15;7.68;;;11.90;99.90;;;;;;5100242;28;20031;-78
2022/03/15 01:10:24;;;;;;;24.75;7.93;;;11.90;99.90;;;;;;5100343;28;20016;-79
2022/03/15 01:12:49;;;;;;;20.00;7.97;;;11.90;99.90;;;;;;5100001;28;20031;-78
2022/03/15 01:15:16;;;;;;;28.08;7.60;;;11.90;99.90;;;;;;5099360;28;20024;-79
2022/03/15 01:17:42;;;;;;;18.10;5.50;;;11.90;99.90;;;;;;5099971;28;20043;-78
2022/03/15 01:20:09;;;;;;;16.17;5.93;;;11.90;99.90;;;;;;5098343;28;20032;-78
2022/03/15 01:22:34;;;;;;;22.50;7.93;;;11.90;99.90;;;;;;5099963;28;20028;-79
2022/03/15 01:25:00;;;;;;;26.02;7.70;;;11.90;99.90;;;;;;5098519;28;20073;-79
2022/03/15 01:27:26;;;;;;;24.88;6.90;;;11.90;99.90;;;;;;5098333;28;20024;-79
2022/03/15 01:29:52;;;;;;;28.90;9.07;;;11.90;99.90;;;;;;5099781;28;20055;-79
2022/03/15 01:32:20;;;;;;;20.10;8.18;;;12.00;99.90;;;;;;5098371;28;20446;-80
2022/03/15 01:34:46;;;;;;;17.88;7.65;;;12.00;99.90;;;;;;5099650;28;20107;-79
2022/03/15 01:37:12;;;;;;;22.13;8.63;;;11.90;99.90;;;;;;5098582;28;20023;-79
2022/03/15 01:39:38;;;;;;;25.30;8.10;;;12.00;99.90;;;;;;5098627;28;20051;-79
2022/03/15 01:42:04;;;;;;;21.88;7.57;;;12.00;99.90;;;;;;5098374;28;20028;-78
2022/03/15 01:44:33;;;;;;;35.25;9.73;;;12.00;99.90;;;;;;5098365;28;20034;-78
2022/03/15 01:47:00;;;;;;;27.00;8.57;;;12.00;99.90;;;;;;5099252;28;20030;-78
2022/03/15 01:49:26;;;;;;;27.75;9.60;;;12.00;99.90;;;;;;5099224;28;20362;-78
2022/03/15 01:51:52;;;;;;;24.77;8.07;;;12.00;99.90;;;;;;5098041;28;20020;-79
2022/03/15 01:54:20;;;;;;;24.13;7.35;;;12.10;99.90;;;;;;5099364;28;20059;-79
2022/03/15 01:56:47;;;;;;;20.52;7.82;;;12.10;99.90;;;;;;5097882;28;20042;-78
2022/03/15 01:59:14;;;;;;;27.00;8.68;;;12.10;99.90;;;;;;5099299;28;20480;-78
2022/03/15 02:01:41;;;;;;;28.85;8.85;;;12.10;99.90;;;;;;5097837;28;20495;-78
2022/03/15 02:04:11;;;;;;;23.58;8.30;;;12.00;99.90;;;;;;5099342;28;20024;-79
2022/03/15 02:06:38;;;;;;;24.95;7.85;;;12.10;99.90;;;;;;5098822;28;20031;-78
2022/03/15 02:09:09;;;;;;;30.33;7.57;;;12.10;99.90;;;;;;5099024;28;20023;-79
2022/03/15 02:11:35;;;;;;;21.63;8.02;;;12.10;99.90;;;;;;5097574;28;20450;-78
2022/03/15 02:14:02;;;;;;;30.88;8.40;;;12.20;99.90;;;;;;5097649;28;20024;-79
2022/03/15 02:16:28;;;;;;;23.88;8.02;;;12.20;99.90;;;;;;5099197;28;20396;-78
2022/03/15 02:18:57;;;;;;;30.63;8.95;;;12.20;99.90;;;;;;5097489;28;20086;-79
2022/03/15 02:21:23;;;;;;;18.52;8.75;;;12.10;99.90;;;;;;5098700;28;20146;-79
2022/03/15 02:23:50;;;;;;;34.42;9.85;;;12.10;99.90;;;;;;5098712;28;20103;-80
2022/03/15 02:26:16;;;;;;;27.98;8.75;;;12.10;99.90;;;;;;5098767;28;20438;-79
2022/03/15 02:28:43;;;;;;;15.75;6.57;;;12.10;99.90;;;;;;5098561;28;20016;-80
2022/03/15 02:31:10;;;;;;;26.30;8.35;;;12.10;99.90;;;;;;5089586;28;20058;-79
2022/03/15 02:33:35;;;;;;;30.02;9.85;;;12.10;99.90;;;;;;5094443;28;20023;-80
2022/03/15 02:36:02;;;;;;;23.13;8.73;;;12.10;99.90;;;;;;5098314;28;20032;-79
2022/03/15 02:38:27;;;;;;;30.83;8.80;;;12.10;99.90;;;;;;5097083;28;20042;-80
2022/03/15 02:40:54;;;;;;;19.60;7.53;;;12.10;99.90;;;;;;5098339;28;20044;-79
2022/03/15 02:43:21;;;;;;;26.50;9.43;;;12.10;99.90;;;;;;5096924;28;20100;-80
2022/03/15 02:45:48;;;;;;;19.80;7.65;;;12.10;99.90;;;;;;5098350;28;20102;-79
2022/03/15 02:48:14;;;;;;;24.00;8.55;;;12.10;99.90;;;;;;5096922;28;20438;-80
2022/03/15 02:50:39;;;;;;;21.80;5.97;;;12.10;99.90;;;;;;5098043;28;20024;-79
2022/03/15 02:53:05;;;;;;;19.30;9.23;;;12.10;99.90;;;;;;5097120;28;20051;-80
2022/03/15 02:55:33;;;;;;;19.63;7.10;;;12.10;99.90;;;;;;5096999;28;20119;-79
2022/03/15 02:58:00;;;;;;;21.15;8.45;;;12.10;99.90;;;;;;5096612;28;20032;-80
2022/03/15 03:00:27;;;;;;;30.70;8.43;;;12.10;99.90;;;;;;5098521;28;20051;-79
2022/03/15 03:02:56;;;;;;;21.15;7.03;;;12.10;99.90;;;;;;5097111;28;20072;-79
2022/03/15 03:05:22;;;;;;;20.05;7.57;;;12.10;99.90;;;;;;5096438;28;20089;-79
2022/03/15 03:07:49;;;;;;;18.75;8.07;;;12.20;99.90;;;;;;5097844;28;20016;-79
2022/03/15 03:10:16;;;;;;;28.08;7.57;;;12.20;99.90;;;;;;5098041;28;20024;-79
2022/03/15 03:12:49;;;;;;;21.42;7.70;;;12.20;99.90;;;;;;5097781;28;20012;-79
2022/03/15 03:15:15;;;;;;;14.80;7.18;;;12.20;99.90;;;;;;5098056;28;20030;-80
2022/03/15 03:17:41;;;;;;;20.90;6.78;;;12.20;99.90;;;;;;5096376;28;20028;-79
2022/03/15 03:20:12;;;;;;;18.67;6.70;;;12.20;99.90;;;;;;5097566;28;20039;-80
2022/03/15 03:22:41;;;;;;;21.67;7.32;;;12.20;99.90;;;;;;5096508;28;20024;-80
2022/03/15 03:25:08;;;;;;;18.55;5.38;;;12.30;99.90;;;;;;5096386;28;20063;-80
2022/03/15 03:27:34;;;;;;;23.08;7.65;;;12.30;99.90;;;;;;5097453;28;20012;-79
2022/03/15 03:30:00;;;;;;;19.92;7.10;;;12.30;99.90;;;;;;5097565;28;20028;-79
2022/03/15 03:32:26;;;;;;;24.80;7.68;;;12.30;99.90;;;;;;5096386;28;20039;-81
2022/03/15 03:34:56;;;;;;;15.85;6.38;;;12.20;99.90;;;;;;5095914;28;20400;-80
2022/03/15 03:37:23;;;;;;;16.80;6.22;;;12.20;99.90;;;;;;5084916;28;20501;-79
2022/03/15 03:39:51;;;;;;;25.15;7.07;;;12.20;99.90;;;;;;5097258;28;20052;-80
2022/03/15 03:42:17;;;;;;;16.67;6.93;;;12.30;99.90;;;;;;5096166;28;20111;-80
2022/03/15 03:44:43;;;;;;;15.40;7.25;;;12.30;99.90;;;;;;5097455;28;20024;-80
2022/03/15 03:47:10;;;;;;;22.17;6.43;;;12.20;99.90;;;;;;5097319;28;20034;-80
2022/03/15 03:49:37;;;;;;;15.75;6.68;;;12.20;99.90;;;;;;5095663;28;20069;-80
2022/03/15 03:52:03;;;;;;;14.02;5.95;;;12.30;99.90;;;;;;5097420;28;20016;-79
2022/03/15 03:54:29;;;;;;;19.15;8.02;;;12.20;99.90;;;;;;5095393;28;20034;-79
2022/03/15 03:56:55;;;;;;;21.83;6.45;;;12.20;99.90;;;;;;5097191;28;20020;-80
2022/03/15 03:59:21;;;;;;;24.50;7.93;;;12.20;99.90;;;;;;5097221;28;20484;-80
2022/03/15 04:01:47;;;;;;;18.95;7.18;;;12.20;99.90;;;;;;5097248;28;20020;-80
2022/03/15 04:04:14;;;;;;;18.17;5.70;;;12.20;99.90;;;;;;5095792;28;20028;-79
2022/03/15 04:06:40;;;;;;;28.05;7.45;;;12.20;99.90;;;;;;5096087;28;20028;-79
2022/03/15 04:09:06;;;;;;;20.98;7.10;;;12.20;99.90;;;;;;5095818;28;20035;-80
2022/03/15 04:11:32;;;;;;;21.17;6.95;;;12.20;99.90;;;;;;5095968;28;20016;-79
2022/03/15 04:13:59;;;;;;;21.92;5.95;;;12.20;99.90;;;;;;5094082;28;20058;-80
2022/03/15 04:16:28;;;;;;;22.55;6.32;;;12.20;99.90;;;;;;5095909;28;20074;-79
2022/03/15 04:18:54;;;;;;;17.60;6.40;;;12.20;99.90;;;;;;5095729;28;20028;-79
2022/03/15 04:21:24;;;;;;;19.92;7.88;;;12.20;99.90;;;;;;5095357;28;20105;-80
2022/03/15 04:23:51;;;;;;;30.60;7.17;;;12.10;99.90;;;;;;5095621;28;20101;-80
2022/03/15 04:26:18;;;;;;;16.27;6.95;;;12.10;99.90;;;;;;5097172;28;20039;-80
2022/03/15 04:28:43;;;;;;;17.77;6.00;;;12.10;99.90;;;;;;5096712;28;20480;-80
2022/03/15 04:31:10;;;;;;;17.33;6.75;;;12.10;99.90;;;;;;5096844;28;20070;-80
2022/03/15 04:33:35;;;;;;;16.40;5.20;;;12.10;99.90;;;;;;5097014;28;20504;-80
2022/03/15 04:36:01;;;;;;;25.05;7.25;;;12.10;99.90;;;;;;5095591;28;20402;-79
2022/03/15 04:38:27;;;;;;;24.25;7.63;;;12.10;99.90;;;;;;5096869;28;20028;-80
2022/03/15 04:40:53;;;;;;;25.17;5.78;;;12.10;99.90;;;;;;5096618;28;20047;-80
2022/03/15 04:43:19;;;;;;;19.60;7.22;;;12.10;99.90;;;;;;5095257;28;20054;-80
2022/03/15 04:45:45;;;;;;;18.20;6.47;;;12.10;99.90;;;;;;5095730;28;20060;-79
2022/03/15 04:48:11;;;;;;;17.13;6.82;;;12.10;99.90;;;;;;5097036;28;20021;-79
2022/03/15 04:50:37;;;;;;;16.88;6.53;;;12.10;99.90;;;;;;5096606;28;20031;-78
2022/03/15 04:53:03;;;;;;;15.73;7.40;;;12.10;99.90;;;;;;5096623;28;20024;-78
2022/03/15 04:55:29;;;;;;;19.23;6.13;;;12.10;99.90;;;;;;5096921;28;20077;-80
2022/03/15 04:57:55;;;;;;;15.70;6.22;;;12.10;99.90;;;;;;5096428;28;20024;-80
2022/03/15 05:00:22;;;;;;;16.23;6.20;;;12.10;99.90;;;;;;5095511;28;20032;-79
2022/03/15 05:02:47;;;;;;;21.65;6.03;;;12.10;99.90;;;;;;5095560;28;20036;-79
2022/03/15 05:05:13;;;;;;;13.55;6.45;;;12.20;99.90;;;;;;5096503;28;20032;-79
2022/03/15 05:07:39;;;;;;;16.38;6.18;;;12.10;99.90;;;;;;5099774;28;20043;-78
2022/03/15 05:12:50;;;;;;;17.42;7.35;;;12.20;99.90;;;;;;5100316;28;20069;-79
2022/03/15 05:15:16;;;;;;;22.35;8.15;;;12.10;99.90;;;;;;5099017;28;20032;-79
2022/03/15 05:17:42;;;;;;;19.60;6.32;;;12.10;99.90;;;;;;5098754;28;20115;-78
2022/03/15 05:20:10;;;;;;;19.05;7.47;;;12.10;99.90;;;;;;5099790;28;20511;-78
2022/03/15 05:22:36;;;;;;;22.08;7.00;;;12.20;99.90;;;;;;5098672;28;20020;-79
2022/03/15 05:25:03;;;;;;;9.98;5.18;;;12.20;99.90;;;;;;5100074;28;20134;-80
2022/03/15 05:27:33;;;;;;;16.73;5.60;;;12.10;99.90;;;;;;5099725;28;20461;-79
2022/03/15 05:30:00;;;;;;;19.88;6.50;;;12.10;99.90;;;;;;5096728;28;20036;-80
2022/03/15 05:32:26;;;;;;;15.65;5.32;;;12.10;99.90;;;;;;5097386;28;20023;-80
2022/03/15 05:34:52;;;;;;;13.57;5.18;;;12.20;99.90;;;;;;5099549;28;20027;-79
2022/03/15 05:37:18;;;;;;;14.82;6.22;;;12.10;99.90;;;;;;5099699;28;20395;-79
2022/03/15 05:39:44;;;;;;;16.55;5.85;;;12.20;99.90;;;;;;5099787;28;20118;-79
2022/03/15 05:42:13;;;;;;;22.95;6.20;;;12.20;99.90;;;;;;5099648;28;20020;-79
2022/03/15 05:44:40;;;;;;;16.13;6.50;;;12.10;99.90;;;;;;5099591;28;20472;-79
2022/03/15 05:47:07;;;;;;;17.77;7.72;;;12.20;99.90;;;;;;5097937;28;20035;-80
2022/03/15 05:49:34;;;;;;;14.90;6.05;;;12.20;99.90;;;;;;5099394;28;20024;-79
2022/03/15 05:52:00;;;;;;;19.15;6.85;;;12.20;99.90;;;;;;5099688;28;20464;-79
2022/03/15 05:54:26;;;;;;;17.60;6.20;;;12.10;99.90;;;;;;5099337;28;20099;-80
2022/03/15 05:56:51;;;;;;;16.63;6.88;;;12.10;99.90;;;;;;5098158;28;20056;-79
2022/03/15 05:59:17;;;;;;;21.85;6.93;;;12.10;99.90;;;;;;5098227;28;20028;-79
2022/03/15 06:01:43;;;;;;;19.45;6.88;;;12.10;99.90;;;;;;5098379;28;20028;-79
2022/03/15 06:04:10;;;;;;;17.65;6.57;;;12.10;99.90;;;;;;5098017;28;20098;-79
2022/03/15 06:06:37;;;;;;;25.70;6.30;;;12.10;99.90;;;;;;5099403;28;20502;-79
2022/03/15 06:09:04;;;;;;;23.75;7.45;;;12.10;99.90;;;;;;5099453;28;20074;-80
2022/03/15 06:11:32;;;;;;;17.60;7.65;;;12.20;99.90;;;;;;5097961;28;20044;-80
2022/03/15 06:14:01;;;;;;;24.38;7.95;;;12.10;99.90;;;;;;5097823;28;20031;-80
2022/03/15 06:16:27;;;;;;;26.55;7.43;;;12.10;99.90;;;;;;5099682;28;20329;-79
2022/03/15 06:18:53;;;;;;;23.48;8.10;;;12.10;99.90;;;;;;5097251;28;20020;-79
2022/03/15 06:21:19;;;;;;;28.08;9.98;;;12.10;99.90;;;;;;5097527;28;20061;-79
2022/03/15 06:23:45;;;;;;;19.90;6.88;;;12.10;99.90;;;;;;5098859;28;20039;-78
2022/03/15 06:26:11;;;;;;;19.15;8.15;;;12.10;99.90;;;;;;5098802;28;20495;-78
2022/03/15 06:28:37;;;;;;;12.90;5.53;;;12.10;99.90;;;;;;5098857;28;20024;-79
2022/03/15 06:31:04;;;;;;;21.05;6.75;;;12.10;99.90;;;;;;5099108;28;20016;-80
2022/03/15 06:33:30;;;;;;;21.77;6.65;;;12.10;99.90;;;;;;5098801;28;20032;-80
2022/03/15 06:35:56;;;;;;;21.42;7.55;;;12.10;99.90;;;;;;5096984;28;20610;-79
2022/03/15 06:38:26;;;;;;;21.83;8.45;;;12.10;99.90;;;;;;5098662;28;20028;-79
2022/03/15 06:40:52;;;;;;;19.85;7.75;;;12.10;99.90;;;;;;5097013;28;20040;-80
2022/03/15 06:43:19;;;;;;;17.85;6.90;;;12.10;99.90;;;;;;5098266;28;20032;-77
2022/03/15 06:45:46;;;;;;;22.85;7.05;;;12.10;99.90;;;;;;5096949;28;20031;-78
2022/03/15 06:48:12;;;;;;;15.73;6.30;;;12.10;99.90;;;;;;5097000;28;20031;-77
2022/03/15 06:50:40;;;;;;;13.07;6.38;;;12.10;99.90;;;;;;5096742;28;20647;-77
2022/03/15 06:53:06;;;;;;;14.45;5.78;;;12.10;99.90;;;;;;5098383;28;20024;-76
2022/03/15 06:55:32;;;;;;;15.80;5.97;;;12.10;99.90;;;;;;5096765;28;20087;-78
2022/03/15 06:57:59;;;;;;;17.15;6.25;;;12.20;99.90;;;;;;5096627;28;20086;-77
2022/03/15 07:00:25;;;;;;;11.93;6.10;;;12.10;99.90;;;;;;5097172;28;20027;-76
2022/03/15 07:02:51;;;;;;;19.10;5.90;;;12.20;99.90;;;;;;5096545;28;20095;-77
2022/03/15 07:05:17;;;;;;;17.80;5.43;;;12.20;99.90;;;;;;5097814;28;20522;-77
2022/03/15 07:07:43;;;;;;;13.15;5.63;;;12.20;99.90;;;;;;5096537;28;20047;-78
2022/03/15 07:10:10;;;;;;;14.68;5.60;;;12.20;99.90;;;;;;5092720;28;20459;-77
2022/03/15 07:12:37;;;;;;;20.58;6.72;;;12.20;99.90;;;;;;5094587;28;20020;-77
2022/03/15 07:15:05;;;;;;;15.60;5.70;;;12.20;99.90;;;;;;5096621;28;20090;-77
2022/03/15 07:17:32;;;;;;;8.93;3.88;;;12.20;99.90;;;;;;5098077;28;20023;-76
2022/03/15 07:19:58;;;;;;;17.55;6.45;;;12.30;99.90;;;;;;5097434;28;20020;-76
2022/03/15 07:22:25;;;;;;;16.77;6.72;;;12.30;99.90;;;;;;5097780;28;20393;-78
2022/03/15 07:24:52;;;;;;;10.68;4.43;;;12.30;99.90;;;;;;5096379;28;20027;-77
2022/03/15 07:27:18;;;;;;;11.70;5.90;;;12.30;99.90;;;;;;5096361;28;20028;-76
2022/03/15 07:29:44;;;;;;;15.15;6.28;;;12.30;99.90;;;;;;5096869;28;20527;-76
2022/03/15 07:32:10;;;;;;;17.73;5.57;;;12.30;99.90;;;;;;5096033;28;20016;-77
2022/03/15 07:34:37;;;;;;;14.75;5.93;;;12.30;99.90;;;;;;5095838;28;20092;-76
2022/03/15 07:37:03;;;;;;;13.43;5.32;;;12.30;99.90;;;;;;5096392;28;20035;-76
2022/03/15 07:39:29;;;;;;;18.10;5.72;;;12.40;99.90;;;;;;5097477;28;20036;-76
2022/03/15 07:41:56;;;;;;;12.80;5.05;;;12.40;99.90;;;;;;5082877;28;20042;-77
2022/03/15 07:44:22;;;;;;;12.82;5.80;;;12.40;99.90;;;;;;5096039;28;20032;-75
2022/03/15 07:46:51;;;;;;;7.50;4.28;;;12.50;99.90;;;;;;5097187;28;20488;-75
2022/03/15 07:49:18;;;;;;;8.45;4.40;;;12.50;99.90;;;;;;5095507;28;20111;-74
2022/03/15 07:51:44;;;;;;;9.90;5.07;;;12.60;99.90;;;;;;5090876;28;20039;-75
2022/03/15 07:54:12;;;;;;;10.48;4.43;;;12.50;99.90;;;;;;5097385;28;20024;-76
2022/03/15 07:56:38;;;;;;;10.13;4.57;;;12.60;99.90;;;;;;5097240;28;20426;-75
2022/03/15 07:59:04;;;;;;;13.43;5.15;;;12.60;99.90;;;;;;5097234;28;20020;-74
2022/03/15 08:01:30;;;;;;;13.30;5.15;;;12.60;99.90;;;;;;5094379;28;20036;-74
2022/03/15 08:03:55;;;;;;;20.80;5.47;;;12.60;99.90;;;;;;5091150;28;20027;-75
2022/03/15 08:06:21;;;;;;;14.15;4.95;;;12.60;99.90;;;;;;5093958;28;20039;-74
2022/03/15 08:08:48;;;;;;;12.73;5.70;;;12.60;99.90;;;;;;5094055;28;20020;-75
2022/03/15 08:11:15;;;;;;;14.05;4.93;;;12.60;99.90;;;;;;5081458;28;20033;-75
2022/03/15 08:13:41;;;;;;;18.40;5.80;;;12.60;99.90;;;;;;5078168;28;20016;-75
2022/03/15 08:16:07;;;;;;;13.38;4.65;;;12.60;99.90;;;;;;5079846;28;20027;-76
2022/03/15 08:18:33;;;;;;;13.25;4.85;;;12.70;99.90;;;;;;5075129;28;20378;-75
2022/03/15 08:20:59;;;;;;;8.90;4.55;;;12.70;99.90;;;;;;5088539;28;20039;-75
2022/03/15 08:23:28;;;;;;;12.88;5.07;;;12.70;99.90;;;;;;5096499;28;20016;-77
2022/03/15 08:25:55;;;;;;;7.95;4.75;;;12.70;99.90;;;;;;5095306;28;20406;-77
2022/03/15 08:28:24;;;;;;;12.25;5.18;;;12.70;99.90;;;;;;5096297;28;20414;-77
2022/03/15 08:30:50;;;;;;;13.38;5.13;;;12.70;99.90;;;;;;5096488;28;20017;-76
2022/03/15 08:33:16;;;;;;;20.02;5.88;;;12.70;99.90;;;;;;5096293;28;20470;-77
2022/03/15 08:35:42;;;;;;;11.88;5.10;;;12.70;99.90;;;;;;5095048;28;20134;-77
2022/03/15 08:38:08;;;;;;;12.73;6.13;;;12.70;99.90;;;;;;5096514;28;20063;-77
2022/03/15 08:40:34;;;;;;;16.08;6.43;;;12.70;99.90;;;;;;5095024;28;20079;-77
2022/03/15 08:43:00;;;;;;;15.05;5.80;;;12.70;99.90;;;;;;5085171;28;20051;-76
2022/03/15 08:45:26;;;;;;;12.02;5.05;;;12.70;99.90;;;;;;5084055;28;20397;-76
2022/03/15 08:47:53;;;;;;;13.45;6.38;;;12.70;99.90;;;;;;5078898;28;20054;-76
2022/03/15 08:50:19;;;;;;;15.10;6.00;;;12.70;99.90;;;;;;5096546;28;20028;-77
2022/03/15 08:52:46;;;;;;;18.45;7.53;;;12.70;99.90;;;;;;5098547;28;20433;-76
2022/03/15 08:55:11;;;;;;;16.35;6.93;;;12.70;99.90;;;;;;5100313;28;20031;-76
2022/03/15 08:57:37;;;;;;;11.32;5.10;;;12.70;99.90;;;;;;5099154;28;20080;-77
2022/03/15 09:00:09;;;;;;;16.77;7.35;;;12.70;99.90;;;;;;5084748;28;20100;-77
2022/03/15 09:02:34;;;;;;;19.65;7.18;;;12.80;99.90;;;;;;5097405;28;20012;-76
2022/03/15 09:05:00;;;;;;;18.98;6.93;;;12.90;99.90;;;;;;5099564;28;20498;-78
2022/03/15 09:07:32;;;;;;;24.35;6.13;;;12.90;99.90;;;;;;5098331;28;20523;-77
2022/03/15 09:09:59;;;;;;;21.38;5.95;;;12.90;99.90;;;;;;5099950;28;20034;-76
2022/03/15 09:12:25;;;;;;;23.52;7.63;;;13.10;99.90;;;;;;5099440;28;20130;-75
2022/03/15 09:14:52;;;;;;;22.90;7.78;;;13.10;99.90;;;;;;5098403;28;20024;-76
2022/03/15 09:17:18;;;;;;;13.15;5.45;;;13.20;99.90;;;;;;5099637;28;20034;-77
2022/03/15 09:19:43;;;;;;;13.18;6.60;;;13.30;99.90;;;;;;5097846;28;20059;-75
2022/03/15 09:22:09;;;;;;;19.55;7.03;;;13.30;99.90;;;;;;5099438;28;20062;-76
2022/03/15 09:24:36;;;;;;;18.40;8.35;;;13.40;99.90;;;;;;5099380;28;20247;-77
2022/03/15 09:27:03;;;;;;;19.30;6.72;;;13.50;99.90;;;;;;5099260;28;20020;-75
2022/03/15 09:29:29;;;;;;;21.17;7.38;;;13.60;99.90;;;;;;5090650;28;20024;-76
2022/03/15 09:31:55;;;;;;;16.85;6.47;;;13.70;99.90;;;;;;5094423;28;20021;-76
2022/03/15 09:34:22;;;;;;;19.63;6.47;;;13.80;99.90;;;;;;5097712;28;20035;-76
2022/03/15 09:36:50;;;;;;;17.02;5.85;;;13.80;99.90;;;;;;5097579;28;20357;-76
2022/03/15 09:39:16;;;;;;;18.27;7.03;;;13.90;99.90;;;;;;5098821;28;20036;-75
2022/03/15 09:41:43;;;;;;;17.25;6.60;;;13.90;99.90;;;;;;5095634;28;20164;-77
2022/03/15 09:44:10;;;;;;;16.67;6.78;;;13.90;99.90;;;;;;5080761;28;20029;-77
2022/03/15 09:46:41;;;;;;;18.60;6.25;;;13.90;99.90;;;;;;5079999;28;20025;-76
2022/03/15 09:49:08;;;;;;;23.48;7.28;;;14.00;99.90;;;;;;5087709;28;20151;-76
2022/03/15 09:51:35;;;;;;;17.05;6.63;;;14.00;99.90;;;;;;5097537;28;20016;-76
2022/03/15 09:54:04;;;;;;;21.38;5.88;;;14.00;99.90;;;;;;5098082;28;20028;-76
2022/03/15 09:56:34;;;;;;;17.60;7.05;;;14.00;99.90;;;;;;5098775;28;20021;-77
2022/03/15 09:59:01;;;;;;;18.20;7.03;;;14.00;99.90;;;;;;5097914;28;20081;-77
2022/03/15 10:01:26;;;;;;;18.88;8.30;;;13.90;99.90;;;;;;5097377;28;20028;-76
2022/03/15 10:03:52;;;;;;;22.52;5.78;;;13.90;99.90;;;;;;5098557;28;20024;-75
2022/03/15 10:06:20;;;;;;;21.90;6.70;;;13.90;99.90;;;;;;5098893;28;20450;-76
2022/03/15 10:08:46;;;;;;;30.33;7.10;;;13.90;99.90;;;;;;5099012;28;20073;-75
2022/03/15 10:11:12;;;;;;;19.90;6.60;;;14.00;99.90;;;;;;5099126;28;20055;-75
2022/03/15 10:13:41;;;;;;;13.60;5.38;;;14.20;99.90;;;;;;5099090;28;20028;-75
2022/03/15 10:16:12;;;;;;;23.15;8.02;;;14.20;99.90;;;;;;5098968;28;20046;-75
2022/03/15 10:18:37;;;;;;;18.05;7.10;;;14.10;99.90;;;;;;5097799;28;20024;-75
2022/03/15 10:21:04;;;;;;;24.42;11.75;;;14.10;99.90;;;;;;5098738;28;20028;-75
2022/03/15 10:23:36;;;;;;;30.30;9.55;;;14.10;99.90;;;;;;5099046;28;20016;-75
2022/03/15 10:26:04;;;;;;;16.55;7.00;;;14.10;99.90;;;;;;5097610;28;20414;-75
2022/03/15 10:28:31;;;;;;;62.63;34.03;;;14.20;99.90;;;;;;5097442;28;20023;-74
2022/03/15 10:30:59;;;;;;;27.90;14.52;;;14.30;99.90;;;;;;5097739;28;20024;-74
2022/03/15 10:33:26;;;;;;;33.03;13.98;;;14.30;99.90;;;;;;5098581;28;20067;-75
2022/03/15 10:35:53;;;;;;;21.95;11.05;;;14.30;99.90;;;;;;5096614;28;20120;-75
2022/03/15 10:38:20;;;;;;;35.97;14.02;;;14.30;99.90;;;;;;5096610;28;20381;-74
2022/03/15 10:40:48;;;;;;;17.98;6.50;;;14.30;99.90;;;;;;5097075;28;20101;-75
2022/03/15 10:43:23;;;;;;;17.23;6.63;;;14.40;99.90;;;;;;5096480;28;20032;-75
2022/03/15 10:45:56;;;;;;;24.83;6.70;;;14.40;99.90;;;;;;5096245;28;20036;-75
2022/03/15 10:48:30;;;;;;;20.42;6.85;;;14.40;99.90;;;;;;5097014;28;20020;-76
2022/03/15 10:51:04;;;;;;;14.38;6.00;;;14.30;99.90;;;;;;5098516;28;20028;-74
2022/03/15 10:53:45;;;;;;;18.75;8.32;;;14.40;99.90;;;;;;5098643;28;20024;-75
2022/03/15 10:56:18;;;;;;;23.88;8.13;;;14.40;99.90;;;;;;5094504;28;20484;-76
2022/03/15 10:58:48;;;;;;;34.15;11.82;;;14.50;99.90;;;;;;5078898;28;20103;-75
2022/03/15 11:01:20;;;;;;;21.85;7.63;;;14.50;99.90;;;;;;5093025;28;20034;-75
2022/03/15 11:04:17;;;;;;;14.32;5.95;;;14.50;99.90;;;;;;5096974;28;20035;-75
2022/03/15 11:06:44;;;;;;;24.48;13.77;;;14.40;99.90;;;;;;5084233;28;20035;-76
2022/03/15 11:09:25;;;;;;;19.05;9.07;;;14.30;99.90;;;;;;5097194;28;20035;-76
2022/03/15 11:12:07;;;;;;;22.90;10.07;;;14.30;99.90;;;;;;5095532;28;20027;-77
2022/03/15 11:14:59;;;;;;;33.53;15.68;;;14.30;99.90;;;;;;5098139;28;20070;-75
2022/03/15 11:17:26;;;;;;;56.03;29.58;;;14.30;99.90;;;;;;5097826;28;20028;-75
2022/03/15 11:19:54;;;;;;;24.83;8.27;;;14.30;99.90;;;;;;5096588;28;20024;-76
2022/03/15 11:22:26;;;;;;;14.77;6.28;;;14.30;99.90;;;;;;5097778;28;20032;-75
2022/03/15 11:25:04;;;;;;;16.75;6.32;;;14.30;99.90;;;;;;5096400;28;20438;-76
2022/03/15 11:27:42;;;;;;;27.02;9.27;;;14.30;99.90;;;;;;5097662;28;20028;-75
2022/03/15 11:30:11;;;;;;;20.63;6.93;;;14.40;99.90;;;;;;5096338;28;20020;-77
2022/03/15 11:32:38;;;;;;;22.67;6.47;;;14.40;99.90;;;;;;5097712;28;20103;-75
2022/03/15 11:35:08;;;;;;;27.23;12.85;;;14.40;99.90;;;;;;5097269;28;20545;-75
2022/03/15 11:37:35;;;;;;;29.55;11.32;;;14.40;99.90;;;;;;5096547;28;20119;-75
2022/03/15 11:40:04;;;;;;;53.95;25.40;;;14.40;99.90;;;;;;5095964;28;20051;-76
2022/03/15 11:42:33;;;;;;;27.90;11.93;;;14.50;99.90;;;;;;5087092;28;20028;-77
2022/03/15 11:45:38;;;;;;;32.30;12.65;;;14.50;99.90;;;;;;5097693;28;20031;-77
2022/03/15 11:48:29;;;;;;;19.88;7.95;;;14.50;99.90;;;;;;5097496;28;20024;-75
2022/03/15 11:51:12;;;;;;;17.65;7.40;;;14.60;99.90;;;;;;5095855;28;20442;-74
2022/03/15 11:54:08;;;;;;;21.13;10.07;;;14.70;99.90;;;;;;5095975;28;20020;-75
2022/03/15 11:56:39;;;;;;;18.88;7.90;;;14.60;99.90;;;;;;5095822;28;20032;-76
2022/03/15 11:59:05;;;;;;;22.17;7.43;;;14.70;99.90;;;;;;5097421;28;20083;-75
2022/03/15 12:01:42;;;;;;;20.42;7.18;;;14.70;99.90;;;;;;5097378;28;20449;-75
2022/03/15 12:04:10;;;;;;;11.32;4.50;;;14.70;99.90;;;;;;5096808;28;20024;-75
2022/03/15 12:06:36;;;;;;;13.63;5.80;;;14.80;99.90;;;;;;5097379;28;20460;-75
2022/03/15 12:09:10;;;;;;;15.13;5.78;;;14.80;99.90;;;;;;5097156;28;20025;-75
2022/03/15 12:11:42;;;;;;;17.95;6.22;;;14.90;99.90;;;;;;5097229;28;20392;-76
2022/03/15 12:14:19;;;;;;;19.80;6.05;;;15.10;99.90;;;;;;5097116;28;20016;-76
2022/03/15 12:16:48;;;;;;;13.68;4.72;;;15.10;99.90;;;;;;5081223;28;20032;-77
2022/03/15 12:19:39;;;;;;;21.02;6.15;;;15.20;99.90;;;;;;5100913;28;20031;-75
2022/03/15 12:22:08;;;;;;;13.57;5.40;;;15.10;99.90;;;;;;5100200;28;20067;-76
2022/03/15 12:24:35;;;;;;;19.40;6.45;;;15.10;99.90;;;;;;5100083;28;20034;-75
2022/03/15 12:27:20;;;;;;;15.90;7.03;;;15.10;99.90;;;;;;5100990;28;20026;-76
2022/03/15 12:29:58;;;;;;;18.63;6.18;;;15.00;99.90;;;;;;5096376;28;20020;-77
2022/03/15 12:32:25;;;;;;;20.42;7.40;;;14.90;99.90;;;;;;5101223;28;20130;-76
2022/03/15 12:34:55;;;;;;;17.15;6.03;;;14.90;99.90;;;;;;5099714;28;20048;-76
2022/03/15 12:37:30;;;;;;;13.55;6.38;;;14.80;99.90;;;;;;5087533;28;20027;-77
2022/03/15 12:39:58;;;;;;;32.70;9.60;;;14.70;99.90;;;;;;5099120;28;20071;-75
2022/03/15 12:42:25;;;;;;;176.35;74.25;;;14.60;99.90;;;;;;5079225;28;20051;-76